createdAt,value
2019-05-10T00:01:51.898Z,61.73
2019-05-10T00:06:13.893Z,61.65
2019-05-10T00:10:17.151Z,61.77
2019-05-10T00:14:37.371Z,61.93
2019-05-10T00:18:41.584Z,61.96
2019-05-10T00:22:45.869Z,61.91
2019-05-10T00:26:50.193Z,61.95
2019-05-10T00:30:54.422Z,62.07
2019-05-10T00:34:58.710Z,62.04
2019-05-10T00:39:02.980Z,62.11
2019-05-10T00:43:07.209Z,62.00
2019-05-10T00:47:11.485Z,61.93
2019-05-10T00:51:15.830Z,61.87
2019-05-10T00:55:20.501Z,61.88
2019-05-10T00:59:25.118Z,61.87
2019-05-10T01:03:29.446Z,61.92
2019-05-10T01:07:33.953Z,62.13
2019-05-10T01:11:38.848Z,62.25
2019-05-10T01:15:46.584Z,62.31
2019-05-10T01:19:49.431Z,62.41
2019-05-10T01:23:53.700Z,62.54
2019-05-10T01:27:57.983Z,62.37
2019-05-10T01:32:02.446Z,62.49
2019-05-10T01:36:06.744Z,62.51
2019-05-10T01:40:11.216Z,62.43
2019-05-10T01:44:15.478Z,62.50
2019-05-10T01:48:19.766Z,62.52
2019-05-10T01:52:24.078Z,62.59
2019-05-10T01:56:28.334Z,62.62
2019-05-10T02:00:32.556Z,62.74
2019-05-10T02:04:36.817Z,62.88
2019-05-10T02:08:41.057Z,62.92
2019-05-10T02:12:45.302Z,62.84
2019-05-10T02:16:49.556Z,62.95
2019-05-10T02:20:53.771Z,62.91
2019-05-10T02:24:58.019Z,62.76
2019-05-10T02:29:02.224Z,62.62
2019-05-10T02:33:06.634Z,62.41
2019-05-10T02:37:10.860Z,62.33
2019-05-10T02:41:15.121Z,62.20
2019-05-10T02:45:20.391Z,62.11
2019-05-10T02:49:24.946Z,61.92
2019-05-10T02:53:29.448Z,61.83
2019-05-10T02:57:34.305Z,61.84
2019-05-10T03:01:41.808Z,61.83
2019-05-10T03:05:48.580Z,61.89
2019-05-10T03:09:53.836Z,61.88
2019-05-10T03:14:01.089Z,62.03
2019-05-10T03:18:05.856Z,62.12
2019-05-10T03:22:10.135Z,62.14
2019-05-10T03:26:14.348Z,62.18
2019-05-10T03:30:18.869Z,62.27
2019-05-10T03:34:23.141Z,62.27
2019-05-10T03:38:27.366Z,62.29
2019-05-10T03:42:31.572Z,62.24
2019-05-10T03:46:35.830Z,62.31
2019-05-10T03:50:40.129Z,62.15
2019-05-10T03:54:44.394Z,62.25
2019-05-10T03:58:48.689Z,62.16
2019-05-10T04:02:53.263Z,62.08
2019-05-10T04:06:57.542Z,62.21
2019-05-10T04:11:02.151Z,62.16
2019-05-10T04:15:08.316Z,62.11
2019-05-10T04:19:12.620Z,62.20
2019-05-10T04:23:17.036Z,62.18
2019-05-10T04:27:31.474Z,62.15
2019-05-10T04:31:27.257Z,62.09
2019-05-10T04:35:31.499Z,62.17
2019-05-10T04:39:35.767Z,62.16
2019-05-10T04:43:40.045Z,62.03
2019-05-10T04:47:44.351Z,61.78
2019-05-10T04:51:48.651Z,61.55
2019-05-10T04:55:52.881Z,61.65
2019-05-10T04:59:57.145Z,61.40
2019-05-10T05:04:01.503Z,61.28
2019-05-10T05:08:06.397Z,61.22
2019-05-10T05:12:10.780Z,61.22
2019-05-10T05:16:15.053Z,61.08
2019-05-10T05:20:19.348Z,60.84
2019-05-10T05:24:24.561Z,60.51
2019-05-10T05:28:29.253Z,60.19
2019-05-10T05:32:38.451Z,60.02
2019-05-10T05:36:39.811Z,59.61
2019-05-10T05:40:44.097Z,58.66
2019-05-10T05:44:48.424Z,58.13
2019-05-10T05:48:52.732Z,57.95
2019-05-10T05:52:57.394Z,56.72
2019-05-10T05:57:01.680Z,55.72
2019-05-10T06:01:06.071Z,56.09
2019-05-10T06:05:10.354Z,55.72
2019-05-10T06:09:14.584Z,55.24
2019-05-10T06:13:23.478Z,54.93
2019-05-10T06:17:29.438Z,54.90
2019-05-10T06:21:31.380Z,54.71
2019-05-10T06:25:42.237Z,54.33
2019-05-10T06:29:43.162Z,53.71
2019-05-10T06:33:47.873Z,52.65
2019-05-10T06:37:52.144Z,52.49
2019-05-10T06:41:58.416Z,52.70
2019-05-10T06:46:03.145Z,52.38
2019-05-10T06:50:08.227Z,51.63
2019-05-10T06:54:12.439Z,51.30
2019-05-10T06:58:16.711Z,51.66
2019-05-10T07:02:26.664Z,51.17
2019-05-10T07:06:27.141Z,51.43
2019-05-10T07:10:33.817Z,51.29
2019-05-10T07:14:44.970Z,50.96
2019-05-10T07:18:43.448Z,50.26
2019-05-10T07:22:47.703Z,50.53
2019-05-10T07:26:56.624Z,50.32
2019-05-10T07:30:57.971Z,50.34
2019-05-10T07:35:02.497Z,49.54
2019-05-10T07:39:08.433Z,49.72
2019-05-10T07:43:24.990Z,49.56
2019-05-10T07:47:23.834Z,49.40
2019-05-10T07:51:28.729Z,48.67
2019-05-10T07:55:30.829Z,47.91
2019-05-10T07:59:49.480Z,47.97
2019-05-10T08:03:48.294Z,48.25
2019-05-10T08:07:49.359Z,47.54
2019-05-10T08:11:53.959Z,47.70
2019-05-10T08:15:59.499Z,47.17
2019-05-10T08:20:08.744Z,47.26
2019-05-10T08:24:16.170Z,46.48
2019-05-10T08:28:16.635Z,46.26
2019-05-10T08:32:25.547Z,46.30
2019-05-10T08:36:26.806Z,46.71
2019-05-10T08:40:36.803Z,46.74
2019-05-10T08:44:37.310Z,46.01
2019-05-10T08:48:46.680Z,45.46
2019-05-10T08:52:47.557Z,46.14
2019-05-10T09:01:25.903Z,46.18
2019-05-10T09:05:28.600Z,45.46
2019-05-10T09:09:26.344Z,46.18
2019-05-10T09:13:37.250Z,45.91
2019-05-10T09:17:36.980Z,46.44
2019-05-10T09:21:49.324Z,46.54
2019-05-10T09:25:48.047Z,47.01
2019-05-10T09:29:52.998Z,46.54
2019-05-10T09:33:57.563Z,45.95
2019-05-10T09:38:02.109Z,45.96
2019-05-10T09:42:10.155Z,45.12
2019-05-10T09:46:14.146Z,44.88
2019-05-10T09:50:18.975Z,44.94
2019-05-10T09:54:28.593Z,45.10
2019-05-10T09:58:29.205Z,45.62
2019-05-10T10:02:34.045Z,44.89
2019-05-10T10:06:41.901Z,44.81
2019-05-10T10:10:44.359Z,45.02
2019-05-10T10:14:48.595Z,45.32
2019-05-10T10:18:52.928Z,45.16
2019-05-10T10:22:57.152Z,45.08
2019-05-10T10:27:01.402Z,44.66
2019-05-10T10:31:08.276Z,44.58
2019-05-10T10:35:13.144Z,44.61
2019-05-10T10:39:22.870Z,44.47
2019-05-10T10:43:23.999Z,42.74
2019-05-10T10:47:32.048Z,42.44
2019-05-10T10:51:34.743Z,42.88
2019-05-10T10:55:40.240Z,43.41
2019-05-10T10:59:47.314Z,43.83
2019-05-10T11:03:50.744Z,44.19
2019-05-10T11:07:55.070Z,43.34
2019-05-10T11:12:00.963Z,42.47
2019-05-10T11:16:10.771Z,43.29
2019-05-10T11:20:12.089Z,42.46
2019-05-10T11:24:18.566Z,42.78
2019-05-10T11:28:22.348Z,41.06
2019-05-10T11:32:26.621Z,42.05
2019-05-10T11:36:31.400Z,43.08
2019-05-10T11:40:35.871Z,43.03
2019-05-10T11:44:41.474Z,42.48
2019-05-10T11:48:46.123Z,42.62
2019-05-10T11:52:51.306Z,42.24
2019-05-10T12:01:12.844Z,39.49
2019-05-10T12:05:12.182Z,40.80
2019-05-10T12:09:14.869Z,39.94
2019-05-10T12:13:23.754Z,39.96
2019-05-10T12:17:25.142Z,38.40
2019-05-10T12:21:33.113Z,38.92
2019-05-10T12:25:51.487Z,39.03
2019-05-10T12:26:18.268Z,40.49
2019-05-10T12:29:41.426Z,39.25
2019-05-10T12:33:45.679Z,38.57
2019-05-10T12:37:54.129Z,38.86
2019-05-10T12:41:56.106Z,38.98
2019-05-10T12:46:00.398Z,39.28
2019-05-10T12:50:05.382Z,38.94
2019-05-10T12:54:11.294Z,39.48
2019-05-10T12:58:15.726Z,39.70
2019-05-10T13:02:19.999Z,39.57
2019-05-10T13:06:24.306Z,40.23
2019-05-10T13:10:28.606Z,40.34
2019-05-10T13:14:32.864Z,40.40
2019-05-10T13:18:52.822Z,40.41
2019-05-10T13:22:43.154Z,41.02
2019-05-10T13:26:47.431Z,41.03
2019-05-10T13:30:51.636Z,41.05
2019-05-10T13:34:55.908Z,41.01
2019-05-10T13:39:00.215Z,41.12
2019-05-10T13:43:04.470Z,41.18
2019-05-10T13:47:08.742Z,41.02
2019-05-10T13:51:13.017Z,40.92
2019-05-10T13:55:17.220Z,41.11
2019-05-10T13:59:21.482Z,41.40
2019-05-10T14:03:25.748Z,41.42
2019-05-10T14:07:29.982Z,41.37
2019-05-10T14:11:40.208Z,40.67
2019-05-10T14:15:40.203Z,41.15
2019-05-10T14:19:44.501Z,41.58
2019-05-10T14:23:48.779Z,41.85
2019-05-10T14:27:53.056Z,41.92
2019-05-10T14:31:57.347Z,41.94
2019-05-10T14:36:03.230Z,42.25
2019-05-10T14:40:08.281Z,40.70
2019-05-10T14:44:12.570Z,40.99
2019-05-10T14:48:27.729Z,41.10
2019-05-10T14:52:23.219Z,40.61
2019-05-10T14:56:27.450Z,40.48
2019-05-10T15:00:31.743Z,41.06
2019-05-10T15:04:45.268Z,40.30
2019-05-10T15:08:41.976Z,40.90
2019-05-10T15:12:46.630Z,41.03
2019-05-10T15:16:50.847Z,41.09
2019-05-10T15:20:55.272Z,40.82
2019-05-10T15:24:59.535Z,40.67
2019-05-10T15:29:03.944Z,40.73
2019-05-10T15:33:08.532Z,40.90
2019-05-10T15:37:12.896Z,40.83
2019-05-10T15:41:22.393Z,41.10
2019-05-10T15:45:23.355Z,41.18
2019-05-10T15:49:27.595Z,41.33
2019-05-10T15:53:31.891Z,41.47
2019-05-10T15:57:36.179Z,41.44
2019-05-10T16:01:40.431Z,41.83
2019-05-10T16:05:59.580Z,41.71
2019-05-10T16:09:54.494Z,42.00
2019-05-10T16:14:00.171Z,41.86
2019-05-10T16:18:03.058Z,42.35
2019-05-10T16:22:07.370Z,42.64
2019-05-10T16:26:11.644Z,42.53
2019-05-10T16:30:17.743Z,42.49
2019-05-10T16:34:26.460Z,42.74
2019-05-10T16:38:27.904Z,42.92
2019-05-10T16:42:34.535Z,43.26
2019-05-10T16:46:38.214Z,43.40
2019-05-10T16:50:42.837Z,43.50
2019-05-10T16:54:47.069Z,43.48
2019-05-10T16:58:53.143Z,43.58
2019-05-10T17:02:57.903Z,43.72
2019-05-10T17:07:02.156Z,43.51
2019-05-10T17:11:10.063Z,43.66
2019-05-10T17:15:13.054Z,43.95
2019-05-10T17:19:17.368Z,44.14
2019-05-10T17:23:21.610Z,43.99
2019-05-10T17:27:26.023Z,43.89
2019-05-10T17:31:30.240Z,44.24
2019-05-10T17:35:36.642Z,44.20
2019-05-10T17:39:40.669Z,44.35
2019-05-10T17:43:44.942Z,44.07
2019-05-10T17:47:49.614Z,43.93
2019-05-10T17:51:53.882Z,44.22
2019-05-10T17:56:02.653Z,44.55
2019-05-10T18:00:05.118Z,44.55
2019-05-10T18:04:09.377Z,44.62
2019-05-10T18:08:13.703Z,44.96
2019-05-10T18:12:20.388Z,45.17
2019-05-10T18:16:24.338Z,45.28
2019-05-10T18:20:28.937Z,45.27
2019-05-10T18:24:36.259Z,45.54
2019-05-10T18:28:39.806Z,45.74
2019-05-10T18:32:44.338Z,45.92
2019-05-10T18:36:52.309Z,46.16
2019-05-10T18:40:58.141Z,46.31
2019-05-10T18:45:02.827Z,46.48
2019-05-10T18:49:07.275Z,46.41
2019-05-10T18:53:11.611Z,46.65
2019-05-10T18:57:19.243Z,46.51
2019-05-10T19:01:22.346Z,46.77
2019-05-10T19:05:31.671Z,46.88
2019-05-10T19:09:33.290Z,47.12
2019-05-10T19:13:46.637Z,47.29
2019-05-10T19:17:45.766Z,47.42
2019-05-10T19:21:50.720Z,47.52
2019-05-10T19:25:56.108Z,47.75
2019-05-10T19:30:00.664Z,47.98
2019-05-10T19:34:09.041Z,48.16
2019-05-10T19:38:12.117Z,48.25
2019-05-10T19:42:16.641Z,48.25
2019-05-10T19:46:20.996Z,48.42
2019-05-10T19:50:30.671Z,48.44
2019-05-10T19:54:31.732Z,48.43
2019-05-10T19:58:36.090Z,48.51
2019-05-10T20:02:40.384Z,48.70
2019-05-10T20:06:46.047Z,48.94
2019-05-10T20:10:50.470Z,49.06
2019-05-10T20:14:55.041Z,49.09
2019-05-10T20:18:59.660Z,49.20
2019-05-10T20:23:04.101Z,49.41
2019-05-10T20:27:08.524Z,49.54
2019-05-10T20:31:12.843Z,49.71
2019-05-10T20:35:17.386Z,49.89
2019-05-10T20:39:21.685Z,50.02
2019-05-10T20:43:25.983Z,50.09
2019-05-10T20:47:30.236Z,50.24
2019-05-10T20:51:34.499Z,50.45
2019-05-10T20:55:38.821Z,50.56
2019-05-10T20:59:43.570Z,50.67
2019-05-10T21:03:47.834Z,50.85
2019-05-10T21:07:52.118Z,51.00
2019-05-10T21:11:56.359Z,51.13
2019-05-10T21:16:00.645Z,51.37
2019-05-10T21:20:05.337Z,51.40
2019-05-10T21:24:09.594Z,51.58
2019-05-10T21:28:13.922Z,51.80
2019-05-10T21:32:18.220Z,52.00
2019-05-10T21:36:24.737Z,52.25
2019-05-10T21:40:28.442Z,52.39
2019-05-10T21:44:32.786Z,52.59
2019-05-10T21:48:37.057Z,52.82
2019-05-10T21:52:41.675Z,53.01
2019-05-10T21:56:45.954Z,53.22
2019-05-10T22:00:52.168Z,53.41
2019-05-10T22:04:56.427Z,53.60
2019-05-10T22:09:00.739Z,53.80
2019-05-10T22:13:04.971Z,53.96
2019-05-10T22:17:09.222Z,54.12
2019-05-10T22:21:13.494Z,54.27
2019-05-10T22:25:17.971Z,54.32
2019-05-10T22:29:22.509Z,54.45
2019-05-10T22:33:26.929Z,54.59
2019-05-10T22:37:31.482Z,54.77
2019-05-10T22:41:35.799Z,54.96
2019-05-10T22:45:40.034Z,55.02
2019-05-10T22:49:44.280Z,55.18
2019-05-10T22:53:59.122Z,55.34
2019-05-10T22:57:54.587Z,55.42
2019-05-10T23:01:58.827Z,55.55
2019-05-10T23:06:03.085Z,55.77
2019-05-10T23:10:07.622Z,55.94
2019-05-10T23:14:11.894Z,55.90
2019-05-10T23:18:16.138Z,55.95
2019-05-10T23:22:20.466Z,56.09
2019-05-10T23:26:24.897Z,56.22
2019-05-10T23:30:29.173Z,56.30
2019-05-10T23:34:33.401Z,56.39
2019-05-10T23:38:37.738Z,56.63
2019-05-10T23:42:42.004Z,56.83
2019-05-10T23:46:46.272Z,56.79
2019-05-10T23:50:50.525Z,56.81
2019-05-10T23:54:54.809Z,56.95
2019-05-10T23:58:59.062Z,57.04
